Time;durP1;ratioP1;P1;durP2;ratioP2;P2;SDS_P1;SDS_P2;PMS_P1;PMS_P2;Temp;Humidity;BMP_temperature;BMP_pressure;BME280_temperature;BME280_humidity;BME280_pressure;Samples;Min_cycle;Max_cycle;Signal;HPM_P1;HPM_P2
2023/07/26 00:01:52;;;;;;;;;;;16.10;65.10;;;12.02;100.00;95230.66;4972270;28;19953;-50
2023/07/26 00:04:18;;;;;;;;;;;16.10;65.20;;;12.04;100.00;95236.53;4966453;28;19920;-46
2023/07/26 00:06:44;;;;;;;;;;;16.10;65.30;;;12.04;100.00;95241.88;4962925;28;19910;-49
2023/07/26 00:09:10;;;;;;;;;;;16.10;65.40;;;12.02;100.00;95239.47;4969303;28;19916;-47
2023/07/26 00:11:36;;;;;;;;;;;16.10;65.50;;;11.98;100.00;95248.34;4973624;28;19910;-50
2023/07/26 00:14:04;;;;;;;;;;;16.10;65.50;;;11.97;100.00;95244.88;4965096;28;19910;-47
2023/07/26 00:16:31;;;;;;;;;;;16.00;65.50;;;11.93;100.00;95253.72;4969776;28;20004;-47
2023/07/26 00:18:57;;;;;;;;;;;16.00;66.30;;;11.95;100.00;95254.22;4965063;28;20319;-45
2023/07/26 00:21:23;;;;;;;;;;;16.00;65.60;;;11.92;100.00;95255.59;4959587;28;20012;-45
2023/07/26 00:23:49;;;;;;;;;;;16.00;65.70;;;11.86;100.00;95251.38;4964790;28;19960;-47
2023/07/26 00:26:15;;;;;;;;;;;15.90;65.70;;;11.87;100.00;95252.16;4962681;28;19913;-45
2023/07/26 00:28:40;;;;;;;;;;;15.90;65.70;;;11.80;100.00;95261.25;4971450;28;19910;-48
2023/07/26 00:31:06;;;;;;;;;;;15.90;65.80;;;11.77;100.00;95261.00;4969110;28;19941;-44
2023/07/26 00:33:32;;;;;;;;;;;15.90;65.90;;;11.74;100.00;95259.69;4963710;28;19914;-44
2023/07/26 00:35:58;;;;;;;;;;;15.80;65.90;;;11.71;100.00;95254.13;4962606;28;19925;-44
2023/07/26 00:38:23;;;;;;;;;;;15.80;65.90;;;11.70;100.00;95248.00;4966357;28;19914;-43
2023/07/26 00:40:49;;;;;;;;;;;15.80;66.00;;;11.70;100.00;95255.22;4968004;28;19918;-45
2023/07/26 00:43:15;;;;;;;;;;;15.70;66.00;;;11.68;100.00;95257.34;4964398;28;20269;-45
2023/07/26 00:45:43;;;;;;;;;;;15.70;66.10;;;11.67;100.00;95251.22;4963535;28;20368;-45
2023/07/26 00:48:11;;;;;;;;;;;15.70;66.10;;;11.70;100.00;95253.34;4964810;28;19948;-45
2023/07/26 00:50:42;;;;;;;;;;;15.70;66.20;;;11.66;100.00;95254.97;4962208;28;19916;-44
2023/07/26 00:53:09;;;;;;;;;;;15.70;66.20;;;11.66;100.00;95254.16;4956333;28;19945;-46
2023/07/26 00:55:35;;;;;;;;;;;15.70;66.20;;;11.61;100.00;95243.53;4967894;28;20380;-43
2023/07/26 00:58:03;;;;;;;;;;;15.70;66.30;;;11.60;100.00;95244.63;4963197;28;19910;-43
2023/07/26 01:00:30;;;;;;;;;;;15.70;66.30;;;11.58;100.00;95244.88;4969990;28;20415;-44
2023/07/26 01:02:56;;;;;;;;;;;15.60;66.30;;;11.51;100.00;95250.53;4993331;23;19948;-53
2023/07/26 01:05:30;;;;;;;;;;;15.60;66.30;;;11.50;100.00;95259.63;4974494;28;19921;-48
2023/07/26 01:08:14;;;;;;;;;;;15.50;66.30;;;11.47;100.00;95262.03;4973392;28;19916;-48
2023/07/26 01:11:02;;;;;;;;;;;15.50;66.40;;;11.47;100.00;95270.03;4974613;28;20403;-49
2023/07/26 01:14:02;;;;;;;;;;;15.50;66.50;;;11.47;100.00;95270.03;4954150;28;20382;-45
2023/07/26 01:16:28;;;;;;;;;;;15.50;67.30;;;11.45;100.00;95274.88;4955006;28;19917;-45
2023/07/26 01:18:54;;;;;;;;;;;15.50;66.60;;;11.45;100.00;95285.53;4954194;28;20304;-46
2023/07/26 01:21:20;;;;;;;;;;;15.50;66.60;;;11.38;100.00;95285.84;4943081;28;20282;-46
2023/07/26 01:23:45;;;;;;;;;;;15.50;66.70;;;11.33;100.00;95292.00;4955467;28;19914;-46
2023/07/26 01:26:11;;;;;;;;;;;15.50;66.70;;;11.32;100.00;95302.94;4953870;28;19917;-48
2023/07/26 01:28:37;;;;;;;;;;;15.40;66.70;;;11.35;100.00;95302.41;4949658;28;20065;-48
2023/07/26 01:31:06;;;;;;;;;;;15.40;66.70;;;11.27;100.00;95293.09;4942323;28;19937;-50
2023/07/26 01:33:35;;;;;;;;;;;15.40;66.70;;;11.21;100.00;95299.53;4950646;28;19910;-50
2023/07/26 01:36:03;;;;;;;;;;;15.40;66.70;;;11.14;100.00;95301.69;4954474;28;19911;-51
2023/07/26 01:38:30;;;;;;;;;;;15.30;66.60;;;11.07;100.00;95303.88;4944446;28;20423;-48
2023/07/26 01:40:58;;;;;;;;;;;15.30;66.60;;;10.96;100.00;95312.97;4940223;28;19910;-49
2023/07/26 01:43:25;;;;;;;;;;;15.20;66.70;;;10.92;100.00;95310.06;4953566;28;20277;-47
2023/07/26 01:45:50;;;;;;;;;;;15.10;66.70;;;10.93;100.00;95321.50;4942954;28;19925;-50
2023/07/26 01:48:16;;;;;;;;;;;15.10;66.80;;;10.89;100.00;95323.94;4935415;29;19910;-50
2023/07/26 01:50:42;;;;;;;;;;;15.00;66.80;;;10.91;100.00;95331.66;4935949;29;20717;-48
2023/07/26 01:53:07;;;;;;;;;;;15.00;66.80;;;10.92;100.00;95327.94;4942707;28;19917;-46
2023/07/26 01:55:33;;;;;;;;;;;15.00;66.90;;;10.92;100.00;95331.38;4951172;28;19914;-48
2023/07/26 01:57:59;;;;;;;;;;;15.00;66.90;;;10.91;100.00;95335.13;4953737;28;20464;-50
2023/07/26 02:00:25;;;;;;;;;;;15.00;66.90;;;10.93;100.00;95337.50;4952556;28;19956;-52
2023/07/26 02:02:50;;;;;;;;;;;15.00;67.00;;;10.94;100.00;95347.13;4944959;28;19918;-49
2023/07/26 02:05:16;;;;;;;;;;;15.10;67.00;;;10.95;100.00;95343.38;4953921;28;19944;-47
2023/07/26 02:07:42;;;;;;;;;;;15.10;67.00;;;10.96;100.00;95345.75;4954336;28;20071;-46
2023/07/26 02:10:08;;;;;;;;;;;15.10;67.00;;;10.99;100.00;95344.41;4950403;28;20021;-46
2023/07/26 02:12:34;;;;;;;;;;;15.10;67.00;;;11.02;100.00;95355.31;4934893;29;19911;-53
2023/07/26 02:15:00;;;;;;;;;;;15.10;67.80;;;11.02;100.00;95343.88;4951590;28;19921;-47
2023/07/26 02:17:26;;;;;;;;;;;15.20;67.00;;;11.00;100.00;95354.00;4944851;28;19921;-51
2023/07/26 02:19:51;;;;;;;;;;;15.20;67.10;;;11.07;100.00;95349.19;4954475;28;20340;-48
2023/07/26 02:22:17;;;;;;;;;;;15.20;67.00;;;11.04;100.00;95360.41;4944312;28;19972;-50
2023/07/26 02:24:43;;;;;;;;;;;15.20;67.10;;;11.02;100.00;95355.31;4951085;28;19932;-46
2023/07/26 02:27:08;;;;;;;;;;;15.20;67.10;;;11.04;100.00;95358.53;4953921;28;19964;-49
2023/07/26 02:29:34;;;;;;;;;;;15.20;67.00;;;11.05;100.00;95365.44;4938500;28;19910;-49
2023/07/26 02:32:00;;;;;;;;;;;15.20;67.00;;;11.04;100.00;95363.84;4935059;29;19957;-51
2023/07/26 02:34:26;;;;;;;;;;;15.20;67.00;;;11.04;100.00;95366.53;4946504;28;19914;-46
2023/07/26 02:36:51;;;;;;;;;;;15.20;67.00;;;10.96;100.00;95367.06;4954241;28;20280;-49
2023/07/26 02:39:18;;;;;;;;;;;15.20;66.90;;;10.97;100.00;95367.88;4951674;28;19924;-46
2023/07/26 02:41:44;;;;;;;;;;;15.20;66.90;;;10.97;100.00;95368.69;4954145;28;19910;-48
2023/07/26 02:44:09;;;;;;;;;;;15.20;67.00;;;10.94;100.00;95365.78;4950835;28;19918;-50
2023/07/26 02:46:35;;;;;;;;;;;15.10;66.80;;;10.91;100.00;95369.78;4947688;28;20383;-50
2023/07/26 02:49:01;;;;;;;;;;;15.10;66.80;;;10.88;100.00;95368.44;4953803;28;20457;-46
2023/07/26 02:51:26;;;;;;;;;;;15.10;66.80;;;10.86;100.00;95370.56;4953336;28;20372;-46
2023/07/26 02:53:52;;;;;;;;;;;15.00;66.60;;;10.81;100.00;95378.59;4941323;28;20352;-45
2023/07/26 02:56:18;;;;;;;;;;;15.00;66.60;;;10.80;100.00;95376.97;4954222;28;20005;-47
2023/07/26 02:58:44;;;;;;;;;;;15.00;66.70;;;10.80;100.00;95379.63;4948880;29;19938;-50
2023/07/26 03:01:09;;;;;;;;;;;15.00;66.70;;;10.76;100.00;95375.94;4934448;29;20420;-47
2023/07/26 03:03:35;;;;;;;;;;;15.00;66.70;;;10.73;100.00;95373.81;4949667;29;19921;-47
2023/07/26 03:06:01;;;;;;;;;;;14.90;66.60;;;10.68;100.00;95384.47;4944207;29;19910;-49
2023/07/26 03:08:26;;;;;;;;;;;14.90;66.70;;;10.71;100.00;95388.47;4948995;29;19933;-48
2023/07/26 03:10:53;;;;;;;;;;;14.90;66.80;;;10.73;100.00;95389.00;4950934;28;19964;-52
2023/07/26 03:13:19;;;;;;;;;;;14.90;66.90;;;10.73;100.00;95383.66;4952274;28;19942;-46
2023/07/26 03:15:45;;;;;;;;;;;14.90;66.90;;;10.73;100.00;95387.13;4940646;29;19948;-48
2023/07/26 03:18:11;;;;;;;;;;;14.90;66.80;;;10.75;100.00;95387.66;4950639;28;20017;-50
2023/07/26 03:20:37;;;;;;;;;;;15.00;66.90;;;10.75;100.00;95393.00;4934912;29;19911;-51
2023/07/26 03:23:02;;;;;;;;;;;15.00;66.90;;;10.76;100.00;95388.47;4947586;29;19915;-48
2023/07/26 03:25:28;;;;;;;;;;;15.00;66.90;;;10.74;100.00;95394.03;4944093;29;19917;-52
2023/07/26 03:27:55;;;;;;;;;;;15.00;66.90;;;10.78;100.00;95387.13;4953489;29;19917;-46
2023/07/26 03:30:20;;;;;;;;;;;15.00;66.80;;;10.79;100.00;95388.72;4944381;29;20017;-49
2023/07/26 03:32:46;;;;;;;;;;;15.00;66.70;;;10.79;100.00;95388.72;4934034;29;20325;-45
2023/07/26 03:35:12;;;;;;;;;;;15.00;66.70;;;10.79;100.00;95386.03;4950740;29;19925;-45
2023/07/26 03:37:37;;;;;;;;;;;15.00;66.60;;;10.77;100.00;95382.06;4953688;29;19917;-45
2023/07/26 03:40:04;;;;;;;;;;;15.00;66.60;;;10.75;100.00;95387.66;4952977;29;20362;-49
2023/07/26 03:42:30;;;;;;;;;;;15.10;66.60;;;10.72;100.00;95393.53;4953628;28;19918;-49
2023/07/26 03:44:56;;;;;;;;;;;15.00;66.60;;;10.71;100.00;95388.47;4953640;29;20369;-48
2023/07/26 03:47:21;;;;;;;;;;;15.00;66.60;;;10.69;100.00;95385.28;4953240;29;19914;-46
2023/07/26 03:49:47;;;;;;;;;;;15.00;66.70;;;10.65;100.00;95395.66;4953933;29;19910;-49
2023/07/26 03:52:13;;;;;;;;;;;15.00;66.70;;;10.64;100.00;95391.41;4947157;29;20304;-46
2023/07/26 03:54:38;;;;;;;;;;;15.00;66.80;;;10.67;100.00;95395.41;4953647;29;19956;-48
2023/07/26 03:57:07;;;;;;;;;;;15.00;66.80;;;10.63;100.00;95395.16;4953295;28;19945;-46
2023/07/26 03:59:32;;;;;;;;;;;14.90;66.80;;;10.64;100.00;95394.06;4946881;28;19965;-48
2023/07/26 04:01:58;;;;;;;;;;;14.90;66.90;;;10.66;100.00;95399.94;4945032;28;20332;-46
2023/07/26 04:04:24;;;;;;;;;;;14.90;66.90;;;10.67;100.00;95390.88;4956003;28;19910;-46
2023/07/26 04:06:49;;;;;;;;;;;14.90;67.00;;;10.69;100.00;95393.28;4956957;28;19922;-47
2023/07/26 04:09:15;;;;;;;;;;;14.90;67.00;;;10.70;100.00;95394.88;4950611;28;19957;-46
2023/07/26 04:11:41;;;;;;;;;;;14.90;67.00;;;10.71;100.00;95394.56;4956857;28;20381;-47
2023/07/26 04:14:07;;;;;;;;;;;14.90;67.00;;;10.72;100.00;95400.69;4956929;28;20324;-47
2023/07/26 04:16:32;;;;;;;;;;;15.00;67.10;;;10.76;100.00;95401.78;4956448;28;19918;-50
2023/07/26 04:18:58;;;;;;;;;;;15.00;67.10;;;10.78;100.00;95394.28;4956659;28;19910;-48
2023/07/26 04:21:24;;;;;;;;;;;15.00;67.20;;;10.77;100.00;95401.50;4955873;28;19918;-46
2023/07/26 04:23:49;;;;;;;;;;;15.00;67.10;;;10.79;100.00;95398.56;4956621;28;20373;-49
2023/07/26 04:26:15;;;;;;;;;;;15.00;67.10;;;10.80;100.00;95402.81;4956650;28;19936;-45
2023/07/26 04:28:41;;;;;;;;;;;15.00;67.10;;;10.80;100.00;95400.97;4955942;28;19910;-45
2023/07/26 04:31:07;;;;;;;;;;;15.00;67.10;;;10.78;100.00;95403.09;4940184;28;19961;-52
2023/07/26 04:33:33;;;;;;;;;;;15.00;67.10;;;10.78;100.00;95400.44;4946461;28;20380;-47
2023/07/26 04:35:58;;;;;;;;;;;15.00;67.10;;;10.77;100.00;95404.16;4956530;28;19910;-47
2023/07/26 04:38:27;;;;;;;;;;;15.10;67.20;;;10.80;100.00;95413.47;4956497;28;19910;-45
2023/07/26 04:40:53;;;;;;;;;;;15.10;67.30;;;10.82;100.00;95409.50;4952093;28;19910;-48
2023/07/26 04:43:22;;;;;;;;;;;15.10;67.30;;;10.87;100.00;95409.50;4946853;28;19956;-48
2023/07/26 04:45:50;;;;;;;;;;;15.10;67.20;;;10.89;100.00;95409.19;4945930;28;19910;-49
2023/07/26 04:48:20;;;;;;;;;;;15.10;67.10;;;10.90;100.00;95410.78;4956002;28;26629;-51
2023/07/26 04:50:47;;;;;;;;;;;15.20;67.00;;;10.92;100.00;95413.19;4938939;28;20373;-47
2023/07/26 04:53:15;;;;;;;;;;;15.20;67.80;;;10.93;100.00;95417.44;4954574;28;19910;-49
2023/07/26 04:55:49;;;;;;;;;;;15.30;67.00;;;10.95;100.00;95418.00;4956190;28;19916;-46
2023/07/26 04:58:16;;;;;;;;;;;15.30;66.90;;;10.96;100.00;95419.56;4955465;28;19910;-50
2023/07/26 05:00:42;;;;;;;;;;;15.40;66.90;;;10.99;100.00;95409.16;4956169;28;20017;-49
2023/07/26 05:03:12;;;;;;;;;;;15.50;66.90;;;11.03;100.00;95409.41;4954778;28;19918;-46
2023/07/26 05:05:39;;;;;;;;;;;15.50;66.70;;;11.07;100.00;95416.63;4956017;28;20389;-46
2023/07/26 05:08:07;;;;;;;;;;;15.60;66.70;;;11.11;100.00;95420.34;4955981;28;20293;-48
2023/07/26 05:10:33;;;;;;;;;;;15.60;66.60;;;11.16;100.00;95416.06;4948067;28;20438;-46
2023/07/26 05:12:59;;;;;;;;;;;15.70;66.50;;;11.18;100.00;95416.59;4937091;28;19915;-46
2023/07/26 05:15:25;;;;;;;;;;;15.80;66.50;;;11.21;100.00;95424.03;4952217;28;20360;-51
2023/07/26 05:17:52;;;;;;;;;;;15.90;66.40;;;11.26;100.00;95422.16;4955710;28;19910;-49
2023/07/26 05:20:18;;;;;;;;;;;15.90;66.30;;;11.37;100.00;95430.09;4949244;28;20296;-52
2023/07/26 05:22:44;;;;;;;;;;;16.00;66.20;;;11.43;100.00;95435.16;4949124;28;19968;-51
2023/07/26 05:25:10;;;;;;;;;;;16.10;66.20;;;11.52;100.00;95446.06;4955528;28;20339;-50
2023/07/26 05:27:36;;;;;;;;;;;16.20;66.10;;;11.57;100.00;95440.72;4952121;28;19914;-48
2023/07/26 05:30:02;;;;;;;;;;;16.30;66.00;;;11.71;100.00;95444.34;4955271;28;19965;-47
2023/07/26 05:32:28;;;;;;;;;;;16.50;65.90;;;11.84;100.00;95442.16;4955009;28;20025;-49
2023/07/26 05:34:56;;;;;;;;;;;16.60;65.70;;;11.92;100.00;95442.41;4953466;28;19989;-48
2023/07/26 05:37:23;;;;;;;;;;;16.60;65.60;;;11.99;100.00;95450.13;4942457;28;20416;-47
2023/07/26 05:39:50;;;;;;;;;;;16.70;65.60;;;12.02;100.00;95446.91;4953903;28;19910;-45
2023/07/26 05:42:17;;;;;;;;;;;16.80;65.40;;;12.10;100.00;95456.22;4952868;28;19914;-47
2023/07/26 05:44:43;;;;;;;;;;;16.90;65.30;;;12.13;100.00;95451.09;4936228;29;20262;-49
2023/07/26 05:47:10;;;;;;;;;;;17.00;65.20;;;12.21;100.00;95445.16;4944253;28;19911;-47
2023/07/26 05:49:40;;;;;;;;;;;17.10;65.10;;;12.32;100.00;95453.13;4952913;28;19965;-45
2023/07/26 05:52:06;;;;;;;;;;;17.20;65.00;;;12.39;100.00;95454.38;4953952;28;19914;-47
2023/07/26 05:54:32;;;;;;;;;;;17.30;64.90;;;12.40;100.00;95464.00;4955023;28;20437;-48
2023/07/26 05:56:58;;;;;;;;;;;17.30;64.70;;;12.45;100.00;95461.28;4952598;28;20032;-45
2023/07/26 05:59:24;;;;;;;;;;;17.40;64.60;;;12.46;100.00;95460.19;4951619;28;20348;-46
2023/07/26 06:01:49;;;;;;;;;;;17.50;64.50;;;12.53;100.00;95461.75;4951085;28;20005;-46
2023/07/26 06:04:15;;;;;;;;;;;17.50;64.30;;;12.62;100.00;95463.56;4953480;28;19968;-48
2023/07/26 06:06:41;;;;;;;;;;;17.60;64.30;;;12.66;100.00;95464.59;4954836;28;19914;-46
2023/07/26 06:09:07;;;;;;;;;;;17.60;64.20;;;12.69;99.12;95466.72;4954310;28;19914;-51
2023/07/26 06:11:34;;;;;;;;;;;17.70;64.10;;;12.68;100.00;95470.44;4951975;28;19937;-47
2023/07/26 06:14:00;;;;;;;;;;;17.70;64.00;;;12.76;100.00;95469.06;4955078;28;19977;-46
2023/07/26 06:16:26;;;;;;;;;;;17.70;63.90;;;12.81;99.08;95470.88;4953973;28;19913;-51
2023/07/26 06:18:52;;;;;;;;;;;17.70;63.80;;;12.91;99.59;95473.47;4953357;28;19956;-48
2023/07/26 06:21:19;;;;;;;;;;;17.80;63.80;;;13.02;99.13;95477.63;4940173;28;20354;-46
2023/07/26 06:23:45;;;;;;;;;;;17.90;63.70;;;13.10;98.03;95479.72;4944112;28;19915;-53
2023/07/26 06:26:12;;;;;;;;;;;18.00;63.60;;;13.20;97.80;95478.81;4935122;29;19965;-50
2023/07/26 06:28:38;;;;;;;;;;;18.20;63.50;;;13.24;95.92;95474.47;4938497;28;20420;-49
2023/07/26 06:31:04;;;;;;;;;;;18.30;63.20;;;13.41;97.04;95485.56;4934175;29;21589;-46
2023/07/26 06:33:30;;;;;;;;;;;18.50;63.10;;;13.51;94.20;95483.88;4942663;28;20404;-47
2023/07/26 06:35:57;;;;;;;;;;;18.60;62.90;;;13.60;92.83;95482.13;4940771;28;19910;-50
2023/07/26 06:38:23;;;;;;;;;;;18.80;62.70;;;13.71;91.55;95486.28;4954159;28;19910;-47
2023/07/26 06:40:50;;;;;;;;;;;18.90;62.50;;;13.76;91.75;95494.28;4951021;28;19918;-46
2023/07/26 06:43:16;;;;;;;;;;;18.90;62.30;;;13.78;90.83;95500.13;4935257;29;19921;-48
2023/07/26 06:45:47;;;;;;;;;;;18.90;62.10;;;13.70;89.03;95498.09;4939542;28;19925;-45
2023/07/26 06:48:13;;;;;;;;;;;18.90;61.90;;;13.76;89.52;95502.31;4944352;28;19910;-46
2023/07/26 06:50:43;;;;;;;;;;;18.80;61.80;;;13.78;90.30;95504.69;4952165;28;20001;-46
2023/07/26 06:53:09;;;;;;;;;;;18.80;61.80;;;13.76;89.82;95501.50;4953050;28;19911;-48
2023/07/26 06:55:37;;;;;;;;;;;18.70;61.60;;;13.72;88.24;95508.50;4950252;28;20429;-49
2023/07/26 06:58:04;;;;;;;;;;;18.70;61.50;;;13.67;88.74;95514.72;4942773;28;19960;-49
2023/07/26 07:00:30;;;;;;;;;;;18.80;61.40;;;13.50;89.92;95512.47;4941246;29;19965;-49
2023/07/26 07:02:58;;;;;;;;;;;18.80;61.20;;;13.41;91.52;95515.00;4991671;23;19921;-47
2023/07/26 07:05:26;;;;;;;;;;;18.70;60.90;;;13.44;91.82;95516.28;4990457;28;19921;-47
2023/07/26 07:07:52;;;;;;;;;;;18.70;60.80;;;13.37;94.25;95516.63;4992608;28;19937;-45
2023/07/26 07:10:17;;;;;;;;;;;18.60;60.60;;;13.41;95.34;95524.88;4991320;28;19910;-46
2023/07/26 07:12:43;;;;;;;;;;;18.50;60.70;;;13.48;96.67;95525.38;4978999;28;20372;-46
2023/07/26 07:15:10;;;;;;;;;;;18.50;60.90;;;13.48;96.64;95517.34;4972194;28;19910;-48
2023/07/26 07:17:35;;;;;;;;;;;18.50;61.00;;;13.34;95.37;95509.16;4961382;28;19956;-46
2023/07/26 07:20:02;;;;;;;;;;;18.50;60.90;;;13.40;98.25;95517.94;4971993;28;19941;-48
2023/07/26 07:22:28;;;;;;;;;;;18.40;60.80;;;13.43;99.11;95512.03;4972030;28;19913;-48
2023/07/26 07:24:54;;;;;;;;;;;18.40;60.90;;;13.34;97.96;95509.16;4973146;28;19952;-48
2023/07/26 07:27:23;;;;;;;;;;;18.40;61.00;;;13.19;94.39;95504.75;4972422;28;20392;-46
2023/07/26 07:29:49;;;;;;;;;;;18.30;60.90;;;13.14;95.08;95510.16;4960262;28;20363;-46
2023/07/26 07:32:15;;;;;;;;;;;18.30;60.80;;;13.11;96.91;95509.91;4973452;28;19965;-47
2023/07/26 07:34:41;;;;;;;;;;;18.20;60.70;;;13.04;96.57;95512.94;4975788;28;19918;-48
2023/07/26 07:37:06;;;;;;;;;;;18.20;60.70;;;13.00;95.37;95519.91;4976910;28;20386;-47
2023/07/26 07:39:32;;;;;;;;;;;18.20;60.60;;;13.00;98.78;95521.78;4975749;28;19914;-47
2023/07/26 07:41:58;;;;;;;;;;;18.10;60.60;;;13.07;100.00;95523.06;4976592;28;19909;-45
2023/07/26 07:44:26;;;;;;;;;;;18.10;60.90;;;13.05;100.00;95527.88;4976956;28;19914;-47
2023/07/26 07:46:52;;;;;;;;;;;18.00;61.80;;;12.85;100.00;95531.53;4971279;28;19922;-46
2023/07/26 07:49:17;;;;;;;;;;;17.90;61.10;;;12.67;99.60;95530.31;4964017;28;20004;-46
2023/07/26 07:51:43;;;;;;;;;;;17.80;61.00;;;12.46;99.78;95527.00;4980553;28;19910;-45
2023/07/26 07:54:09;;;;;;;;;;;17.70;61.00;;;12.49;100.00;95525.63;4977544;28;19910;-49
2023/07/26 07:56:34;;;;;;;;;;;17.60;61.00;;;12.47;100.00;95528.59;4976736;28;20044;-52
2023/07/26 07:59:00;;;;;;;;;;;17.60;61.20;;;12.46;100.00;95537.69;4975751;28;19963;-52
2023/07/26 08:01:26;;;;;;;;;;;17.50;61.30;;;12.53;100.00;95533.91;4976108;28;20300;-52
2023/07/26 08:03:51;;;;;;;;;;;17.50;61.40;;;12.57;100.00;95538.41;4974989;28;19925;-49
2023/07/26 08:06:17;;;;;;;;;;;17.40;61.60;;;12.44;100.00;95537.19;4976384;28;19914;-50
2023/07/26 08:08:43;;;;;;;;;;;17.40;61.80;;;12.37;100.00;95539.34;4974892;28;19955;-50
2023/07/26 08:11:09;;;;;;;;;;;17.50;61.70;;;12.50;100.00;95533.41;4975168;28;20364;-47
2023/07/26 08:13:35;;;;;;;;;;;17.70;61.50;;;12.65;100.00;95545.03;4963250;28;19917;-48
2023/07/26 08:16:02;;;;;;;;;;;17.90;61.40;;;12.72;98.45;95546.34;4966797;28;20410;-46
2023/07/26 08:18:28;;;;;;;;;;;18.00;61.20;;;12.70;98.25;95555.69;4961600;28;19909;-50
2023/07/26 08:20:54;;;;;;;;;;;18.00;61.20;;;12.61;97.76;95554.69;4975724;28;19917;-47
2023/07/26 08:23:20;;;;;;;;;;;17.80;61.20;;;12.54;99.23;95549.66;4974783;28;19914;-46
2023/07/26 08:25:45;;;;;;;;;;;17.70;61.20;;;12.48;97.94;95550.78;4976045;28;19910;-50
2023/07/26 08:28:11;;;;;;;;;;;17.60;61.20;;;12.45;97.55;95554.00;4977751;28;19932;-45
2023/07/26 08:30:37;;;;;;;;;;;17.60;61.20;;;12.36;96.81;95553.78;4971392;28;20299;-45
2023/07/26 08:33:03;;;;;;;;;;;17.60;61.80;;;12.50;97.67;95543.25;4961183;28;19913;-46
2023/07/26 08:35:30;;;;;;;;;;;17.60;61.10;;;12.59;98.02;95543.47;4963646;28;20380;-48
2023/07/26 08:37:56;;;;;;;;;;;17.70;61.10;;;12.68;97.57;95537.25;4974696;28;19916;-49
2023/07/26 08:40:23;;;;;;;;;;;17.90;61.10;;;12.81;97.58;95546.50;4974612;28;19914;-47
2023/07/26 08:42:49;;;;;;;;;;;18.00;61.00;;;13.00;95.39;95538.59;4975092;28;19957;-48
2023/07/26 08:45:17;;;;;;;;;;;18.30;60.80;;;13.25;92.99;95539.50;4970433;28;19996;-49
2023/07/26 08:47:44;;;;;;;;;;;18.90;60.40;;;13.68;93.58;95534.25;4974582;28;19914;-49
2023/07/26 08:50:10;;;;;;;;;;;19.40;60.80;;;14.28;88.79;95546.06;4975592;28;19917;-49
2023/07/26 08:52:37;;;;;;;;;;;19.90;59.80;;;14.96;89.35;95536.81;4969773;28;20005;-47
2023/07/26 08:55:03;;;;;;;;;;;20.50;59.50;;;15.43;82.49;95540.31;4956354;28;20018;-46
2023/07/26 08:57:29;;;;;;;;;;;21.20;59.30;;;15.75;80.59;95532.50;4973357;28;20048;-46
2023/07/26 08:59:55;;;;;;;;;;;21.80;58.40;;;16.27;75.21;95535.75;4961757;28;20048;-48
2023/07/26 09:02:23;;;;;;;;;;;22.30;57.70;;;16.76;77.18;95532.25;4974675;28;20325;-48
2023/07/26 09:04:49;;;;;;;;;;;22.70;57.40;;;16.97;72.42;95534.47;4974114;28;19910;-47
2023/07/26 09:07:15;;;;;;;;;;;23.20;56.60;;;17.10;75.49;95538.97;4962115;28;19937;-50
2023/07/26 09:09:41;;;;;;;;;;;23.50;55.60;;;17.61;67.99;95534.19;4968641;28;19909;-52
2023/07/26 09:12:07;;;;;;;;;;;23.90;55.40;;;17.46;68.98;95538.09;4962464;28;19953;-51
2023/07/26 09:14:35;;;;;;;;;;;24.20;54.10;;;18.01;67.73;95538.50;4962103;28;19964;-53
2023/07/26 09:17:04;;;;;;;;;;;24.50;54.10;;;17.82;71.42;95535.25;4967073;28;19910;-53
2023/07/26 09:19:34;;;;;;;;;;;24.60;53.50;;;18.42;65.69;95531.13;4968477;28;20273;-53
2023/07/26 09:22:03;;;;;;;;;;;25.10;53.10;;;17.92;65.23;95537.66;4961923;28;19914;-51
2023/07/26 09:24:42;;;;;;;;;;;25.30;51.80;;;18.14;70.66;95530.59;4973130;28;19957;-48
2023/07/26 09:27:11;;;;;;;;;;;25.70;51.40;;;18.38;67.15;95535.56;4964557;28;19909;-52
2023/07/26 09:29:42;;;;;;;;;;;25.90;50.80;;;18.45;65.41;95533.97;4964521;28;19910;-49
2023/07/26 09:32:08;;;;;;;;;;;25.70;50.80;;;18.69;64.69;95535.44;4963542;28;19917;-48
2023/07/26 09:34:35;;;;;;;;;;;25.80;50.80;;;18.66;62.01;95526.06;4971655;28;19945;-49
2023/07/26 09:37:01;;;;;;;;;;;26.00;50.30;;;18.83;62.19;95530.69;4973421;28;19910;-48
2023/07/26 09:39:33;;;;;;;;;;;26.30;50.10;;;18.68;60.40;95521.16;4959400;28;19920;-50
2023/07/26 09:42:09;;;;;;;;;;;26.30;50.00;;;18.67;61.16;95530.34;4974397;28;19917;-47
2023/07/26 09:44:36;;;;;;;;;;;26.20;49.70;;;18.60;61.94;95523.84;4974400;28;19913;-50
2023/07/26 09:47:03;;;;;;;;;;;25.90;49.70;;;18.67;63.18;95524.94;4960070;28;19917;-48
2023/07/26 09:49:29;;;;;;;;;;;25.90;49.80;;;18.94;61.55;95523.09;4967240;28;19910;-52
2023/07/26 09:51:59;;;;;;;;;;;26.10;49.80;;;19.18;61.64;95525.28;4966767;28;19924;-52
2023/07/26 09:54:46;;;;;;;;;;;26.60;49.20;;;19.60;60.12;95515.47;4962763;28;19910;-49
2023/07/26 09:57:15;;;;;;;;;;;27.00;48.90;;;19.59;59.92;95519.28;4959832;28;19997;-45
2023/07/26 09:59:41;;;;;;;;;;;27.10;48.40;;;19.51;58.75;95522.81;4973009;28;19956;-45
2023/07/26 10:02:11;;;;;;;;;;;27.20;48.20;;;19.54;60.56;95519.47;4972289;28;19921;-49
2023/07/26 10:05:00;;;;;;;;;;;27.10;47.80;;;19.58;60.69;95523.09;4971654;28;20357;-48
2023/07/26 10:07:28;;;;;;;;;;;26.80;48.10;;;19.26;64.02;95527.16;4962571;28;20332;-48
2023/07/26 10:09:58;;;;;;;;;;;26.40;48.30;;;18.80;66.58;95531.31;4969885;28;19920;-48
2023/07/26 10:12:26;;;;;;;;;;;26.00;48.30;;;18.61;68.67;95536.22;4959763;28;20012;-50
2023/07/26 10:14:56;;;;;;;;;;;25.50;48.50;;;18.10;72.02;95532.34;4969187;28;19910;-46
2023/07/26 10:17:26;;;;;;;;;;;25.00;48.60;;;17.80;75.25;95532.09;4968735;28;20021;-47
2023/07/26 10:19:54;;;;;;;;;;;24.50;49.00;;;17.55;73.94;95531.66;4960933;28;20365;-47
2023/07/26 10:22:22;;;;;;;;;;;24.10;49.30;;;17.40;76.22;95526.66;4972904;28;19913;-46
2023/07/26 10:24:48;;;;;;;;;;;23.80;49.70;;;17.29;75.46;95528.81;4961007;28;19914;-45
2023/07/26 10:27:14;;;;;;;;;;;23.50;50.00;;;17.05;80.58;95528.34;4962481;28;19964;-46
2023/07/26 10:29:40;;;;;;;;;;;23.20;50.20;;;16.93;77.41;95528.13;4971581;28;19932;-48
2023/07/26 10:32:07;;;;;;;;;;;23.00;50.40;;;16.76;72.77;95528.75;4963014;28;20033;-45
2023/07/26 10:34:34;;;;;;;;;;;22.80;50.60;;;16.66;79.45;95530.56;4970045;28;19945;-45
2023/07/26 10:37:14;;;;;;;;;;;22.70;50.80;;;16.59;76.51;95524.81;4988779;28;20011;-50
2023/07/26 10:39:39;;;;;;;;;;;22.40;51.10;;;16.41;78.26;95540.00;4959109;28;19941;-47
2023/07/26 10:42:19;;;;;;;;;;;22.20;51.30;;;16.22;81.07;95541.22;4960392;28;19942;-45
2023/07/26 10:44:46;;;;;;;;;;;21.90;51.60;;;15.84;78.86;95538.78;4964778;28;20292;-45
2023/07/26 10:47:12;;;;;;;;;;;21.60;51.90;;;15.55;80.85;95533.66;4956353;28;20439;-45
2023/07/26 10:49:46;;;;;;;;;;;21.40;52.00;;;15.55;84.30;95539.81;4964477;28;19913;-46
2023/07/26 10:52:13;;;;;;;;;;;21.30;52.30;;;15.61;83.99;95527.91;4965926;28;19969;-45
2023/07/26 10:54:50;;;;;;;;;;;21.10;52.50;;;15.89;87.83;95523.34;4963291;28;20411;-48
2023/07/26 10:57:31;;;;;;;;;;;21.40;52.80;;;16.14;87.14;95515.88;4970505;28;20000;-47
2023/07/26 11:00:10;;;;;;;;;;;21.90;52.80;;;16.63;81.08;95516.94;4972341;28;20459;-46
2023/07/26 11:02:48;;;;;;;;;;;23.00;52.40;;;16.99;75.85;95516.13;4964621;28;19918;-47
2023/07/26 11:05:23;;;;;;;;;;;23.50;51.80;;;17.23;74.71;95513.09;4959910;28;20383;-47
2023/07/26 11:08:06;;;;;;;;;;;23.70;51.80;;;17.39;78.49;95519.66;4964856;28;20391;-47
2023/07/26 11:10:38;;;;;;;;;;;23.70;51.80;;;17.48;75.18;95525.88;4966377;28;19957;-46
2023/07/26 11:13:08;;;;;;;;;;;23.70;51.90;;;17.43;74.91;95528.72;4970221;28;19914;-47